Accueil
METAR-TAF:

METAR-TAF

Aéroports :

Rarotonga, Îles Cook

Aéroport international de Rarotonga

latitude: 21-12S, longitude: 159-49W, altitude: 7 m

Observation

Le bulletin a été fait il y a 21 minutes, à 15:00 UTC
Vent 8 kt de sud/sud-est
Température 21°C
Humidité 60%
Pression 1017 hPa
Visibilité 10 km ou plus
Nuages fragmentés à une hauteur de 1800 ft

METAR: NCRG 231500Z 15008KT 9999 BKN018 21/13 Q1017

Heure: 05:21 (15:21 UTC)

Prévision

Le bulletin a été fait il y a 4 heures et 15 minutes, à 11:06 UTC
Prévision valable du 23 à 12 UTC au 24 à 12 UTC
Vent 10 kt de est/sud-est
Visibilité 10 km ou plus
Nuages épars à une hauteur de 2000 ft

TAF: NCRG 231106Z 2312/2412 12010KT 9999 SCT020

Observations et prévisions météorologiques de plus de 4000 aéroports (messages METAR et TAF).

Les stations disponibles sont représentées par des disques jaunes et rouges sur la carte.

Passer la souris dessus pour voir le nom de la station.

Cliquer dessus pour voir les observations et prévisions météorologiques.

Pour changer de carte: cliquez sur les boutons verts avec une croix noire pour zoomer, sur le bouton vert avec un tiret pour effectuer un zoom arrière, ou sur les flèches vertes pour les cartes adjacentes.


METAR-TAF: